KMVL/MVL METAR and TAF weather

Enter ICAO airport designator
Station Type Date Time Source
KMVL METAR 2022/01/27 21:54 UTC NOAA

KMVL 272154Z AUTO 00000KT 10SM CLR M07/M18 A3009 RMK AO2 SLP211 T10721178


Station Type Date Time Source
KMVL Decoded METAR 2022/01/27 21:54 UTC NOAA

MORRISVILLE STOWE STATE AIRPORT , VT, United States (KMVL) 44-32N 72-37W 223M
Jan 27, 2022 - 04:54 PM EST / 2022.01.27 2154 UTC
Wind: Calm:0
Visibility: 10 mile(s):0
Sky conditions: clear
Temperature: 19.0 F (-7.2 C)
Dew Point: -0.0 F (-17.8 C)
Relative Humidity: 42%
Pressure (altimeter): 30.09 in. Hg (1018 hPa)
ob: KMVL 272154Z AUTO 00000KT 10SM CLR M07/M18 A3009 RMK AO2 SLP211 T10721178
cycle: 22

Station Type Date Time Source
KMVL TAF UTC NOAA

Error!

Example: see airport list